Seldovia, AK

5:32 PM AKDT on March 28, 2015 (GMT -0800)
Seldovia | | Change Station
CLOSE
Current Station
Airport
Location: Seldovia,
Elevation: 30 ft
Nearby Weather Stations

Elev 30 ft 59.44 °N, 151.70 °W | Updated 39 minutes ago

Overcast
Overcast
45 °F
Feels Like 42 °F
N
6
Wind Variable Wind from Variable

Today
High -- | Low -- °F
--% Chance of Precip.
Yesterday
High -- | Low -- °F
Precip. -- in
7:44 AM 8:40 PM
Waxing Gibbous, 67% visible
Pressure 29.33 in
Visibility 10.0 miles
Clouds Mostly Cloudy 4900 ft
Overcast 6000 ft
Windchill 42 °F
Dew Point 33 °F
Humidity 63%
Rainfall 0.15 in
Snow Depth Not available.
UV 1 out of 12
Pollen Not available.
Air Quality Not available.
Flu Activity Not available.
METAR PASO 290053Z AUTO VRB05KT 10SM BKN049 OVC060 07/01 A2933 RMK AO2 SLP931 T00720006 TSNO

More Conditions Fewer Conditions

Pressure 29.33 in
Visibility 10.0 miles
Clouds Mostly Cloudy 4900 ft
Overcast 6000 ft
Windchill 42 °F
Dew Point 33 °F
Humidity 63%
Rainfall 0.15 in
Snow Depth Not available.
UV 1 out of 12
Pollen Not available.
Air Quality Not available.
Flu Activity Not available.
METAR PASO 290053Z AUTO VRB05KT 10SM BKN049 OVC060 07/01 A2933 RMK AO2 SLP931 T00720006 TSNO

More Conditions Fewer Conditions

10-Day Weather Forecast

Almanac

Astronomy

Mar. 28, 2015 Rise Set
Actual Time
Civil Twilight
Nautical Twilight
Astronomical Twilight
Moon
Length of Visible Light
Length of Day
Tomorrow will be .
, % of the Moon is Illuminated

Today's Extremes

State Highs State Lows

Community

WunderPhotos

Upload Photos

1,809,150 photos uploaded!

WunderBlogs® & News

Nearby

Air Quality

  Air Quality AQ Index Pollutant
Not available.

Snow Depth

Station Depth Elevation

Earthquake Activity

City Distance Mag. Time & Date
Minimum magnitude displayed is 2.5.

Coastal Water Temperatures

Place Temperature

Stations

Nearby Weather Stations

Station Location Temp. Windchill Dew Point Humidity Wind Precip. Elev Updated Type